createdAt,value
2016-07-20T00:00:28.360Z,1162.13
2016-07-20T00:01:28.366Z,1162.08
2016-07-20T00:02:28.361Z,1162.18
2016-07-20T00:03:28.357Z,1162.16
2016-07-20T00:04:28.377Z,1162.16
2016-07-20T00:05:28.367Z,1162.08
2016-07-20T00:06:28.372Z,1162.05
2016-07-20T00:07:28.363Z,1162.09
2016-07-20T00:08:28.368Z,1162.06
2016-07-20T00:09:28.362Z,1162.07
2016-07-20T00:10:28.369Z,1162.1
2016-07-20T00:11:28.380Z,1162.12
2016-07-20T00:12:28.407Z,1162.09
2016-07-20T00:13:28.375Z,1162.14
2016-07-20T00:14:28.382Z,1162.15
2016-07-20T00:15:28.373Z,1162.17
2016-07-20T00:16:28.372Z,1162.19
2016-07-20T00:17:28.376Z,1162.17
2016-07-20T00:18:28.384Z,1162.2
2016-07-20T00:19:28.625Z,1162.18
2016-07-20T00:20:28.378Z,1162.22
2016-07-20T00:21:28.376Z,1162.2
2016-07-20T00:22:28.381Z,1162.19
2016-07-20T00:23:28.401Z,1162.21
2016-07-20T00:24:28.377Z,1162.18
2016-07-20T00:25:28.382Z,1162.23
2016-07-20T00:26:28.390Z,1162.2
2016-07-20T00:27:28.381Z,1162.24
2016-07-20T00:28:28.390Z,1162.25
2016-07-20T00:29:28.394Z,1162.31
2016-07-20T00:30:28.409Z,1162.28
2016-07-20T00:31:28.393Z,1162.32
2016-07-20T00:32:28.387Z,1162.35
2016-07-20T00:33:28.393Z,1162.32
2016-07-20T00:34:28.391Z,1162.31
2016-07-20T00:35:28.396Z,1162.32
2016-07-20T00:36:28.402Z,1162.41
2016-07-20T00:37:28.400Z,1162.36
2016-07-20T00:38:28.400Z,1162.38
2016-07-20T00:39:28.406Z,1162.36
2016-07-20T00:40:28.399Z,1162.39
2016-07-20T00:41:28.414Z,1162.34
2016-07-20T00:42:28.404Z,1162.36
2016-07-20T00:43:28.391Z,1162.34
2016-07-20T00:44:28.410Z,1162.31
2016-07-20T00:45:28.407Z,1162.39
2016-07-20T00:46:28.398Z,1162.34
2016-07-20T00:47:28.404Z,1162.32
2016-07-20T00:48:28.436Z,1162.34
2016-07-20T00:49:28.409Z,1162.29
2016-07-20T00:50:28.409Z,1162.29
2016-07-20T00:51:28.447Z,1162.29
2016-07-20T00:52:28.411Z,1162.28
2016-07-20T00:53:28.417Z,1162.25
2016-07-20T00:54:28.422Z,1162.22
2016-07-20T00:55:28.413Z,1162.21
2016-07-20T00:56:28.408Z,1162.16
2016-07-20T00:57:28.415Z,1162.18
2016-07-20T00:58:28.417Z,1162.17
2016-07-20T00:59:28.429Z,1162.14
2016-07-20T01:00:28.409Z,1162.08
2016-07-20T01:01:28.424Z,1162.1
2016-07-20T01:02:28.421Z,1162.09
2016-07-20T01:03:28.427Z,1162.05
2016-07-20T01:04:28.415Z,1162.01
2016-07-20T01:05:28.423Z,1162.05
2016-07-20T01:06:28.440Z,1162.02
2016-07-20T01:07:28.441Z,1161.96
2016-07-20T01:08:28.432Z,1161.94
2016-07-20T01:09:28.424Z,1161.91
2016-07-20T01:10:28.438Z,1161.9
2016-07-20T01:11:28.422Z,1161.92
2016-07-20T01:12:28.440Z,1161.89
2016-07-20T01:13:28.439Z,1161.87
2016-07-20T01:14:28.428Z,1161.84
2016-07-20T01:15:28.436Z,1161.81
2016-07-20T01:16:28.441Z,1161.76
2016-07-20T01:17:28.434Z,1161.75
2016-07-20T01:18:28.442Z,1161.68
2016-07-20T01:19:28.432Z,1161.68
2016-07-20T01:20:28.446Z,1161.62
2016-07-20T01:21:28.433Z,1161.61
2016-07-20T01:22:28.434Z,1161.58
2016-07-20T01:23:28.441Z,1161.53
2016-07-20T01:24:28.434Z,1161.53
2016-07-20T01:25:28.445Z,1161.53
2016-07-20T01:26:28.444Z,1161.49
2016-07-20T01:27:28.436Z,1161.5
2016-07-20T01:28:28.439Z,1161.48
2016-07-20T01:29:28.443Z,1161.43
2016-07-20T01:30:28.442Z,1161.44
2016-07-20T01:31:28.443Z,1161.47
2016-07-20T01:32:28.445Z,1161.5
2016-07-20T01:33:28.445Z,1161.47
2016-07-20T01:34:28.441Z,1161.42
2016-07-20T01:35:28.443Z,1161.45
2016-07-20T01:36:28.445Z,1161.38
2016-07-20T01:37:28.444Z,1161.3
2016-07-20T01:38:28.441Z,1161.23
2016-07-20T01:39:28.442Z,1161.27
2016-07-20T01:40:28.445Z,1161.19
2016-07-20T01:41:28.456Z,1161.2
2016-07-20T01:42:28.449Z,1161.16
2016-07-20T01:43:28.449Z,1161.09
2016-07-20T01:44:28.453Z,1161.08
2016-07-20T01:45:28.470Z,1161.01
2016-07-20T01:46:28.477Z,1161
2016-07-20T01:47:28.449Z,1160.92
2016-07-20T01:48:28.457Z,1160.87
2016-07-20T01:49:28.463Z,1160.85
2016-07-20T01:50:28.487Z,1160.85
2016-07-20T01:51:28.475Z,1160.82
2016-07-20T01:52:28.465Z,1160.76
2016-07-20T01:53:28.460Z,1160.78
2016-07-20T01:54:28.450Z,1160.73
2016-07-20T01:55:28.474Z,1160.68
2016-07-20T01:56:28.517Z,1160.67
2016-07-20T01:57:28.470Z,1160.7
2016-07-20T01:58:28.461Z,1160.71
2016-07-20T01:59:28.472Z,1160.73
2016-07-20T02:00:28.475Z,1160.75
2016-07-20T02:01:28.474Z,1160.76
2016-07-20T02:02:28.473Z,1160.79
2016-07-20T02:03:28.467Z,1160.76
2016-07-20T02:04:28.476Z,1160.86
2016-07-20T02:05:28.477Z,1160.9
2016-07-20T02:06:28.484Z,1160.86
2016-07-20T02:07:28.481Z,1160.97
2016-07-20T02:08:28.481Z,1160.98
2016-07-20T02:09:28.478Z,1161.04
2016-07-20T02:10:28.492Z,1161.09
2016-07-20T02:11:28.473Z,1161.02
2016-07-20T02:12:28.480Z,1161.06
2016-07-20T02:13:28.480Z,1161.1
2016-07-20T02:14:28.492Z,1161.06
2016-07-20T02:15:28.504Z,1161.08
2016-07-20T02:16:28.487Z,1161.12
2016-07-20T02:17:28.497Z,1161.05
2016-07-20T02:18:28.503Z,1161.04
2016-07-20T02:19:28.484Z,1161.02
2016-07-20T02:20:28.503Z,1160.98
2016-07-20T02:21:28.503Z,1160.94
2016-07-20T02:22:28.488Z,1160.99
2016-07-20T02:23:28.491Z,1160.96
2016-07-20T02:24:28.503Z,1160.98
2016-07-20T02:25:28.499Z,1160.99
2016-07-20T02:26:28.505Z,1160.98
2016-07-20T02:27:28.499Z,1160.94
2016-07-20T02:28:28.501Z,1160.96
2016-07-20T02:29:28.491Z,1160.97
2016-07-20T02:30:28.498Z,1160.9
2016-07-20T02:31:28.507Z,1160.89
2016-07-20T02:32:28.509Z,1160.93
2016-07-20T02:33:28.503Z,1160.89
2016-07-20T02:34:28.493Z,1160.93
2016-07-20T02:35:28.510Z,1160.94
2016-07-20T02:36:28.507Z,1160.9
2016-07-20T02:37:28.516Z,1160.91
2016-07-20T02:38:28.518Z,1160.93
2016-07-20T02:39:28.497Z,1160.84
2016-07-20T02:40:28.508Z,1160.86
2016-07-20T02:41:28.508Z,1160.83
2016-07-20T02:42:28.522Z,1160.77
2016-07-20T02:43:28.511Z,1160.75
2016-07-20T02:44:28.513Z,1160.68
2016-07-20T02:45:28.519Z,1160.68
2016-07-20T02:46:28.522Z,1160.61
2016-07-20T02:47:28.511Z,1160.63
2016-07-20T02:48:28.523Z,1160.6
2016-07-20T02:49:28.515Z,1160.64
2016-07-20T02:50:28.524Z,1160.64
2016-07-20T02:51:28.543Z,1160.54
2016-07-20T02:52:28.538Z,1160.58
2016-07-20T02:53:28.541Z,1160.48
2016-07-20T02:54:28.531Z,1160.51
2016-07-20T02:55:28.524Z,1160.41
2016-07-20T02:56:28.535Z,1160.39
2016-07-20T02:57:28.526Z,1160.36
2016-07-20T02:58:28.579Z,1160.34
2016-07-20T02:59:28.523Z,1160.37
2016-07-20T03:00:28.526Z,1160.26
2016-07-20T03:01:28.537Z,1160.29
2016-07-20T03:02:28.534Z,1160.3
2016-07-20T03:03:28.539Z,1160.32
2016-07-20T03:04:28.530Z,1160.15
2016-07-20T03:05:28.537Z,1160.36
2016-07-20T03:06:28.532Z,1160.37
2016-07-20T03:07:28.537Z,1160.34
2016-07-20T03:08:28.540Z,1160.37
2016-07-20T03:09:28.531Z,1160.4
2016-07-20T03:10:28.546Z,1160.41
2016-07-20T03:11:28.539Z,1160.42
2016-07-20T03:12:28.524Z,1160.44
2016-07-20T03:13:28.566Z,1160.45
2016-07-20T03:14:28.539Z,1160.48
2016-07-20T03:15:28.538Z,1160.45
2016-07-20T03:16:28.538Z,1160.49
2016-07-20T03:17:28.540Z,1160.46
2016-07-20T03:18:28.563Z,1160.46
2016-07-20T03:19:28.546Z,1160.49
2016-07-20T03:20:28.562Z,1160.47
2016-07-20T03:21:28.538Z,1160.53
2016-07-20T03:22:28.545Z,1160.58
2016-07-20T03:23:28.613Z,1160.58
2016-07-20T03:24:28.569Z,1160.59
2016-07-20T03:25:28.570Z,1160.64
2016-07-20T03:26:28.576Z,1160.62
2016-07-20T03:27:28.569Z,1160.66
2016-07-20T03:28:28.575Z,1160.6
2016-07-20T03:29:28.567Z,1160.62
2016-07-20T03:30:28.565Z,1160.67
2016-07-20T03:31:28.575Z,1160.66
2016-07-20T03:32:28.559Z,1160.72
2016-07-20T03:33:28.563Z,1160.68
2016-07-20T03:34:28.559Z,1160.69
2016-07-20T03:35:28.549Z,1160.69
2016-07-20T03:36:28.557Z,1160.67
2016-07-20T03:37:28.570Z,1160.65
2016-07-20T03:38:28.597Z,1160.64
2016-07-20T03:39:28.570Z,1160.65
2016-07-20T03:40:28.556Z,1160.66
2016-07-20T03:41:28.569Z,1160.61
2016-07-20T03:42:28.571Z,1160.72
2016-07-20T03:43:28.576Z,1160.61
2016-07-20T03:44:28.570Z,1160.67
2016-07-20T03:45:28.570Z,1160.69
2016-07-20T03:46:28.565Z,1160.63
2016-07-20T03:47:28.571Z,1160.68
2016-07-20T03:48:28.597Z,1160.66
2016-07-20T03:49:38.518Z,1160.68
2016-07-20T03:50:28.578Z,1160.65
2016-07-20T03:51:28.564Z,1160.65
2016-07-20T03:52:28.570Z,1160.68
2016-07-20T03:53:28.604Z,1160.66
2016-07-20T03:54:28.577Z,1160.69
2016-07-20T03:55:28.587Z,1160.67
2016-07-20T03:56:28.582Z,1160.71
2016-07-20T03:57:28.577Z,1160.74
2016-07-20T03:58:28.602Z,1160.79
2016-07-20T03:59:28.576Z,1160.79
2016-07-20T04:00:28.582Z,1160.8
2016-07-20T04:01:28.590Z,1160.85
2016-07-20T04:02:28.596Z,1160.89
2016-07-20T04:03:28.634Z,1160.91
2016-07-20T04:04:28.598Z,1160.91
2016-07-20T04:05:28.604Z,1160.9
2016-07-20T04:06:28.600Z,1160.98
2016-07-20T04:07:28.611Z,1160.95
2016-07-20T04:08:28.600Z,1160.95
2016-07-20T04:09:28.596Z,1160.95
2016-07-20T04:10:28.591Z,1160.88
2016-07-20T04:11:28.602Z,1160.86
2016-07-20T04:12:28.601Z,1160.77
2016-07-20T04:13:28.602Z,1160.74
2016-07-20T04:14:28.594Z,1160.72
2016-07-20T04:15:28.602Z,1160.64
2016-07-20T04:16:28.601Z,1160.63
2016-07-20T04:17:28.600Z,1160.56
2016-07-20T04:18:28.601Z,1160.52
2016-07-20T04:19:28.596Z,1160.47
2016-07-20T04:20:28.605Z,1160.4
2016-07-20T04:21:28.631Z,1160.35
2016-07-20T04:22:28.605Z,1160.26
2016-07-20T04:23:28.602Z,1160.19
2016-07-20T04:24:28.605Z,1160.14
2016-07-20T04:25:28.603Z,1160.09
2016-07-20T04:26:28.607Z,1160.06
2016-07-20T04:27:28.616Z,1160
2016-07-20T04:28:28.623Z,1159.96
2016-07-20T04:29:28.635Z,1159.88
2016-07-20T04:30:28.608Z,1159.77
2016-07-20T04:31:28.617Z,1159.7
2016-07-20T04:32:28.638Z,1159.61
2016-07-20T04:33:28.612Z,1159.54
2016-07-20T04:34:28.635Z,1159.44
2016-07-20T04:35:28.611Z,1159.27
2016-07-20T04:36:28.642Z,1159.16
2016-07-20T04:37:28.607Z,1159
2016-07-20T04:38:28.630Z,1158.87
2016-07-20T04:39:28.621Z,1158.7
2016-07-20T04:40:28.631Z,1158.54
2016-07-20T04:41:28.635Z,1158.4
2016-07-20T04:42:28.672Z,1158.2
2016-07-20T04:43:28.620Z,1158.09
2016-07-20T04:44:28.625Z,1157.88
2016-07-20T04:45:28.652Z,1157.75
2016-07-20T04:46:28.637Z,1157.53
2016-07-20T04:47:28.647Z,1157.32
2016-07-20T04:48:28.640Z,1157.11
2016-07-20T04:49:28.633Z,1157
2016-07-20T04:50:28.633Z,1156.75
2016-07-20T04:51:28.642Z,1156.56
2016-07-20T04:52:28.666Z,1156.3
2016-07-20T04:53:28.674Z,1156.09
2016-07-20T04:54:28.655Z,1155.87
2016-07-20T04:55:28.670Z,1155.65
2016-07-20T04:56:28.663Z,1155.36
2016-07-20T04:57:28.648Z,1155.2
2016-07-20T04:58:28.666Z,1154.96
2016-07-20T04:59:28.652Z,1154.67
2016-07-20T05:00:28.663Z,1154.48
2016-07-20T05:01:28.643Z,1154.17
2016-07-20T05:02:28.670Z,1153.92
2016-07-20T05:03:28.659Z,1153.66
2016-07-20T05:04:28.671Z,1153.33
2016-07-20T05:05:28.651Z,1153.07
2016-07-20T05:06:28.633Z,1152.83
2016-07-20T05:07:28.634Z,1152.46
2016-07-20T05:08:28.666Z,1152.07
2016-07-20T05:09:28.655Z,1151.86
2016-07-20T05:10:28.643Z,1151.53
2016-07-20T05:11:28.665Z,1151.19
2016-07-20T05:12:28.644Z,1150.88
2016-07-20T05:13:28.634Z,1150.63
2016-07-20T05:14:28.666Z,1150.29
2016-07-20T05:15:28.668Z,1149.92
2016-07-20T05:16:28.662Z,1149.44
2016-07-20T05:17:28.660Z,1149.13
2016-07-20T05:18:28.658Z,1148.68
2016-07-20T05:19:28.665Z,1148.21
2016-07-20T05:20:28.675Z,1147.78
2016-07-20T05:21:28.669Z,1147.36
2016-07-20T05:22:28.667Z,1146.96
2016-07-20T05:23:28.674Z,1146.59
2016-07-20T05:24:28.665Z,1146.14
2016-07-20T05:25:28.660Z,1145.67
2016-07-20T05:26:28.665Z,1145.24
2016-07-20T05:27:28.670Z,1144.86
2016-07-20T05:28:28.679Z,1144.47
2016-07-20T05:29:28.665Z,1144.05
2016-07-20T05:30:28.675Z,1143.65
2016-07-20T05:31:28.666Z,1143.06
2016-07-20T05:32:28.679Z,1142.65
2016-07-20T05:33:28.673Z,1142.14
2016-07-20T05:34:28.701Z,1141.48
2016-07-20T05:35:28.691Z,1141.08
2016-07-20T05:36:28.705Z,1140.59
2016-07-20T05:37:28.678Z,1140.05
2016-07-20T05:38:28.667Z,1139.75
2016-07-20T05:39:28.671Z,1139.25
2016-07-20T05:40:28.667Z,1138.61
2016-07-20T05:41:28.674Z,1138.16
2016-07-20T05:42:28.676Z,1137.59
2016-07-20T05:43:28.696Z,1137.01
2016-07-20T05:44:28.697Z,1136.43
2016-07-20T05:45:28.684Z,1135.73
2016-07-20T05:46:28.695Z,1135.18
2016-07-20T05:47:28.691Z,1134.54
2016-07-20T05:48:28.750Z,1133.82
2016-07-20T05:49:28.697Z,1133.09
2016-07-20T05:50:28.700Z,1132.28
2016-07-20T05:51:28.698Z,1131.65
2016-07-20T05:52:28.700Z,1131.14
2016-07-20T05:53:28.702Z,1130.38
2016-07-20T05:54:28.711Z,1129.81
2016-07-20T05:55:28.702Z,1129.01
2016-07-20T05:56:28.704Z,1128.06
2016-07-20T05:57:28.725Z,1127.41
2016-07-20T05:58:28.714Z,1126.5
2016-07-20T05:59:28.714Z,1125.62
2016-07-20T06:00:30.306Z,1125.05
2016-07-20T06:01:28.697Z,1124.1
2016-07-20T06:02:28.692Z,1123.11
2016-07-20T06:03:28.703Z,1122.15
2016-07-20T06:04:28.751Z,1121.16
2016-07-20T06:05:28.706Z,1120.17
2016-07-20T06:06:28.717Z,1119.29
2016-07-20T06:07:28.698Z,1118.39
2016-07-20T06:08:28.698Z,1117.29
2016-07-20T06:09:28.709Z,1116.24
2016-07-20T06:10:28.710Z,1115.06
2016-07-20T06:11:28.733Z,1113.89
2016-07-20T06:12:28.707Z,1112.91
2016-07-20T06:13:28.714Z,1111.52
2016-07-20T06:14:28.728Z,1110.51
2016-07-20T06:15:28.773Z,1109.25
2016-07-20T06:16:28.736Z,1107.9
2016-07-20T06:17:28.714Z,1106.7
2016-07-20T06:18:28.787Z,1105.53
2016-07-20T06:19:28.775Z,1104.15
2016-07-20T06:20:28.779Z,1103.28
2016-07-20T06:21:28.736Z,1101.91
2016-07-20T06:22:28.736Z,1100.71
2016-07-20T06:23:28.774Z,1099.17
2016-07-20T06:24:28.800Z,1097.67
2016-07-20T06:25:28.741Z,1096.01
2016-07-20T06:26:28.744Z,1094.24
2016-07-20T06:27:28.776Z,1092.68
2016-07-20T06:28:28.755Z,1091
2016-07-20T06:29:28.729Z,1089.4
2016-07-20T06:30:28.733Z,1087.77
2016-07-20T06:31:28.750Z,1086.45
2016-07-20T06:32:28.761Z,1084.95
2016-07-20T06:33:28.783Z,1083.59
2016-07-20T06:34:28.729Z,1082.03
2016-07-20T06:35:28.761Z,1080.54
2016-07-20T06:36:28.735Z,1078.75
2016-07-20T06:37:28.729Z,1077.32
2016-07-20T06:38:28.740Z,1075.51
2016-07-20T06:39:28.762Z,1073.97
2016-07-20T06:40:28.742Z,1072.06
2016-07-20T06:41:28.745Z,1070.47
2016-07-20T06:42:28.769Z,1068.37
2016-07-20T06:43:28.758Z,1066.19
2016-07-20T06:44:28.734Z,1064.28
2016-07-20T06:45:28.770Z,1062.3
2016-07-20T06:46:28.764Z,1060.01
2016-07-20T06:47:28.763Z,1058.1
2016-07-20T06:48:28.770Z,1055.85
2016-07-20T06:49:28.746Z,1053.97
2016-07-20T06:50:28.747Z,1051.69
2016-07-20T06:51:28.767Z,1047.82
2016-07-20T06:52:28.824Z,1035.78
2016-07-20T06:53:28.761Z,1010.39
2016-07-20T06:54:28.765Z,968.76
2016-07-20T06:55:28.829Z,911.62
2016-07-20T06:56:29.303Z,845.31
2016-07-20T06:57:28.759Z,780.67
2016-07-20T06:58:28.759Z,729.29
2016-07-20T06:59:28.764Z,687.47
2016-07-20T07:00:28.772Z,654.03
2016-07-20T07:01:28.768Z,626.31
2016-07-20T07:02:28.762Z,605.97
2016-07-20T07:03:28.761Z,589.4
2016-07-20T07:04:28.782Z,579.84
2016-07-20T07:05:28.761Z,573.53
2016-07-20T07:06:28.768Z,568.77
2016-07-20T07:07:28.767Z,564.64
2016-07-20T07:08:28.762Z,561.8
2016-07-20T07:09:28.763Z,561.41
2016-07-20T07:10:28.792Z,562.99
2016-07-20T07:11:28.793Z,566.55
2016-07-20T07:12:28.768Z,572.49
2016-07-20T07:13:28.792Z,579.94
2016-07-20T07:14:28.766Z,583.83
2016-07-20T07:15:28.772Z,584.6
2016-07-20T07:16:28.780Z,584.01
2016-07-20T07:17:28.766Z,582.86
2016-07-20T07:18:28.771Z,582.06
2016-07-20T07:19:28.791Z,578.74
2016-07-20T07:20:28.778Z,577.34
2016-07-20T07:21:28.794Z,576.94
2016-07-20T07:22:28.779Z,576.75
2016-07-20T07:23:28.785Z,578.7
2016-07-20T07:24:28.798Z,584.35
2016-07-20T07:25:28.788Z,589.26
2016-07-20T07:26:28.795Z,592.14
2016-07-20T07:27:28.792Z,590.99
2016-07-20T07:28:28.793Z,594.06
2016-07-20T07:29:28.790Z,599.86
2016-07-20T07:30:28.806Z,601.58
2016-07-20T07:31:28.793Z,600.05
2016-07-20T07:32:28.825Z,600.98
2016-07-20T07:33:28.805Z,604.62
2016-07-20T07:34:28.796Z,606.52
2016-07-20T07:35:28.794Z,608.25
2016-07-20T07:36:28.796Z,608.22
2016-07-20T07:37:28.788Z,610.7
2016-07-20T07:38:30.377Z,611.44
2016-07-20T07:39:36.794Z,611.79
2016-07-20T07:40:30.771Z,616.33
2016-07-20T07:41:31.874Z,622.75
2016-07-20T07:42:29.279Z,628.04
2016-07-20T07:43:28.981Z,632.65
2016-07-20T07:44:29.090Z,636.2
2016-07-20T07:45:29.090Z,641.96
2016-07-20T07:46:29.040Z,644.56
2016-07-20T07:47:28.824Z,648.44
2016-07-20T07:48:28.846Z,657.21
2016-07-20T07:49:28.824Z,661.22
2016-07-20T07:50:28.821Z,662.86
2016-07-20T07:51:28.808Z,664.63
2016-07-20T07:52:28.824Z,664.68
2016-07-20T07:53:28.841Z,665.36
2016-07-20T07:54:28.811Z,667.35
2016-07-20T07:55:28.831Z,669.55
2016-07-20T07:56:28.813Z,675.62
2016-07-20T07:57:28.825Z,681.91
2016-07-20T07:58:28.839Z,689.16
2016-07-20T07:59:28.822Z,694.15
2016-07-20T08:00:28.842Z,700.08
2016-07-20T08:01:28.868Z,704.11
2016-07-20T08:02:28.832Z,708.64
2016-07-20T08:03:28.831Z,712.91
2016-07-20T08:04:28.833Z,714.82
2016-07-20T08:05:28.864Z,715.82
2016-07-20T08:06:28.845Z,716.2
2016-07-20T08:07:28.836Z,717.61
2016-07-20T08:08:28.842Z,721.34
2016-07-20T08:09:28.840Z,726.96
2016-07-20T08:10:28.854Z,730.83
2016-07-20T08:11:28.935Z,732.84
2016-07-20T08:12:28.858Z,735.24
2016-07-20T08:13:28.864Z,738.39
2016-07-20T08:14:28.853Z,742.58
2016-07-20T08:15:28.845Z,745
2016-07-20T08:16:28.855Z,747.9
2016-07-20T08:17:28.859Z,749.4
2016-07-20T08:18:28.868Z,750.82
2016-07-20T08:19:28.874Z,753.46
2016-07-20T08:20:28.862Z,755.27
2016-07-20T08:21:28.866Z,755.6
2016-07-20T08:22:28.860Z,756.74
2016-07-20T08:23:28.864Z,757.85
2016-07-20T08:24:28.920Z,758.19
2016-07-20T08:25:28.860Z,758.54
2016-07-20T08:26:28.870Z,758.85
2016-07-20T08:27:28.892Z,760.77
2016-07-20T08:28:28.871Z,765.2
2016-07-20T08:29:28.874Z,768.74
2016-07-20T08:30:28.922Z,770.41
2016-07-20T08:31:28.934Z,771.3
2016-07-20T08:32:28.896Z,771.65
2016-07-20T08:33:28.902Z,771.94
2016-07-20T08:34:28.887Z,770.33
2016-07-20T08:35:28.874Z,769.84
2016-07-20T08:36:28.899Z,771.41
2016-07-20T08:37:28.872Z,771.4
2016-07-20T08:38:28.939Z,771.23
2016-07-20T08:39:28.885Z,769.82
2016-07-20T08:40:28.879Z,768.32
2016-07-20T08:41:28.886Z,768.14
2016-07-20T08:42:28.895Z,767.19
2016-07-20T08:43:28.913Z,767.32
2016-07-20T08:44:28.891Z,767.98
2016-07-20T08:45:29.468Z,770.08
2016-07-20T08:46:28.888Z,773.16
2016-07-20T08:47:28.892Z,774.92
2016-07-20T08:48:28.945Z,775.59
2016-07-20T08:49:28.893Z,775.53
2016-07-20T08:50:28.886Z,775.06
2016-07-20T08:51:28.892Z,773.74
2016-07-20T08:52:28.897Z,772.33
2016-07-20T08:53:28.892Z,770.09
2016-07-20T08:54:28.895Z,768.9
2016-07-20T08:55:28.887Z,766.97
2016-07-20T08:56:28.893Z,765.01
2016-07-20T08:57:28.927Z,764
2016-07-20T08:58:28.926Z,762.86
2016-07-20T08:59:28.893Z,763
2016-07-20T09:00:28.895Z,762.66
2016-07-20T09:01:28.917Z,762.78
2016-07-20T09:02:28.924Z,761.52
2016-07-20T09:03:28.930Z,760.17
2016-07-20T09:04:28.924Z,758.56
2016-07-20T09:05:28.920Z,757.05
2016-07-20T09:06:29.090Z,753.93
2016-07-20T09:07:28.911Z,754.06
2016-07-20T09:08:28.918Z,752.9
2016-07-20T09:09:28.912Z,751.76
2016-07-20T09:10:28.904Z,750.42
2016-07-20T09:11:28.926Z,749.43
2016-07-20T09:12:28.919Z,748.12
2016-07-20T09:13:29.010Z,747.22
2016-07-20T09:14:28.915Z,746.56
2016-07-20T09:15:28.926Z,745.39
2016-07-20T09:16:28.932Z,743.27
2016-07-20T09:17:28.920Z,742.04
2016-07-20T09:18:28.924Z,740.37
2016-07-20T09:19:28.925Z,739.38
2016-07-20T09:20:28.921Z,738
2016-07-20T09:21:28.924Z,736.48
2016-07-20T09:22:28.932Z,735.18
2016-07-20T09:23:28.951Z,734.3
2016-07-20T09:24:28.990Z,732.64
2016-07-20T09:25:28.961Z,730.43
2016-07-20T09:26:28.928Z,727.42
2016-07-20T09:27:28.994Z,725.57
2016-07-20T09:28:28.942Z,722.64
2016-07-20T09:29:28.947Z,721.41
2016-07-20T09:30:28.945Z,718.51
2016-07-20T09:31:28.948Z,717.43
2016-07-20T09:32:28.932Z,716.4
2016-07-20T09:33:29.622Z,714.87
2016-07-20T09:34:28.955Z,714.15
2016-07-20T09:35:28.950Z,712.25
2016-07-20T09:36:28.956Z,710.53
2016-07-20T09:37:28.940Z,710.51
2016-07-20T09:38:28.984Z,710.88
2016-07-20T09:39:28.956Z,709.81
2016-07-20T09:40:28.959Z,708.56
2016-07-20T09:41:28.966Z,706.47
2016-07-20T09:42:28.948Z,704.35
2016-07-20T09:43:28.966Z,702.98
2016-07-20T09:44:28.956Z,701.25
2016-07-20T09:45:29.133Z,698.91
2016-07-20T09:46:28.983Z,696.95
2016-07-20T09:47:28.967Z,694.29
2016-07-20T09:48:28.966Z,691.6
2016-07-20T09:49:28.956Z,689.67
2016-07-20T09:50:28.965Z,687.87
2016-07-20T09:51:29.003Z,685.71
2016-07-20T09:52:28.962Z,684.82
2016-07-20T09:53:28.974Z,683.36
2016-07-20T09:54:28.969Z,681.56
2016-07-20T09:55:28.965Z,679.41
2016-07-20T09:56:28.944Z,676.51
2016-07-20T09:57:28.962Z,674.6
2016-07-20T09:58:28.980Z,672.95
2016-07-20T09:59:28.991Z,672.17
2016-07-20T10:00:28.960Z,672.06
2016-07-20T10:01:28.969Z,671.14
2016-07-20T10:02:28.973Z,671.3
2016-07-20T10:03:28.966Z,669.84
2016-07-20T10:04:28.971Z,668.4
2016-07-20T10:05:28.975Z,666.94
2016-07-20T10:06:28.994Z,665.83
2016-07-20T10:07:28.984Z,664.76
2016-07-20T10:08:28.982Z,663.87
2016-07-20T10:09:28.989Z,661.68
2016-07-20T10:10:28.979Z,660.41
2016-07-20T10:11:28.988Z,658.57
2016-07-20T10:12:28.986Z,657.27
2016-07-20T10:13:29.001Z,655.63
2016-07-20T10:14:29.014Z,654.53
2016-07-20T10:15:28.987Z,652.83
2016-07-20T10:16:28.982Z,651.14
2016-07-20T10:17:28.983Z,649.1
2016-07-20T10:18:28.985Z,647.59
2016-07-20T10:19:28.983Z,647.01
2016-07-20T10:20:28.983Z,646.6
2016-07-20T10:21:29.009Z,645.74
2016-07-20T10:22:28.989Z,645.96
2016-07-20T10:23:28.997Z,645.98
2016-07-20T10:24:28.990Z,645.43
2016-07-20T10:25:28.995Z,644.48
2016-07-20T10:26:29.008Z,643.75
2016-07-20T10:27:29.006Z,643.54
2016-07-20T10:28:29.013Z,643.16
2016-07-20T10:29:29.011Z,643.47
2016-07-20T10:30:29.014Z,642.73
2016-07-20T10:31:29.127Z,642
2016-07-20T10:32:29.016Z,641.09
2016-07-20T10:33:29.009Z,640.52
2016-07-20T10:34:29.018Z,639.5
2016-07-20T10:35:29.040Z,638.09
2016-07-20T10:36:29.018Z,638.81
2016-07-20T10:37:29.028Z,637.53
2016-07-20T10:38:29.063Z,636.73
2016-07-20T10:39:29.021Z,635.05
2016-07-20T10:40:29.021Z,633.38
2016-07-20T10:41:29.012Z,631.32
2016-07-20T10:42:29.018Z,630.16
2016-07-20T10:43:29.011Z,629.38
2016-07-20T10:44:29.051Z,629.03
2016-07-20T10:45:29.052Z,626.18
2016-07-20T10:46:29.023Z,624.12
2016-07-20T10:47:29.024Z,622.82
2016-07-20T10:48:29.021Z,622.17
2016-07-20T10:49:29.043Z,621.8
2016-07-20T10:50:29.030Z,620.51
2016-07-20T10:51:29.030Z,620.09
2016-07-20T10:52:29.036Z,618.98
2016-07-20T10:53:29.043Z,618.76
2016-07-20T10:54:29.050Z,618.2
2016-07-20T10:55:29.042Z,618.36
2016-07-20T10:56:29.035Z,618.95
2016-07-20T10:57:29.045Z,618.73
2016-07-20T10:58:29.046Z,618.18
2016-07-20T10:59:29.045Z,618.51
2016-07-20T11:00:29.047Z,617.4
2016-07-20T11:01:29.028Z,616.64
2016-07-20T11:02:29.048Z,617.39
2016-07-20T11:03:29.055Z,616.06
2016-07-20T11:04:29.086Z,614.56
2016-07-20T11:05:29.039Z,613.2
2016-07-20T11:06:29.077Z,610.68
2016-07-20T11:07:29.044Z,610.09
2016-07-20T11:08:29.061Z,610.31
2016-07-20T11:09:29.040Z,609.86
2016-07-20T11:10:29.113Z,608.93
2016-07-20T11:11:29.059Z,607.31
2016-07-20T11:12:29.065Z,608.46
2016-07-20T11:13:29.054Z,607.51
2016-07-20T11:14:29.071Z,609.18
2016-07-20T11:15:29.078Z,606.58
2016-07-20T11:16:29.059Z,606.37
2016-07-20T11:17:29.078Z,604.42
2016-07-20T11:18:29.081Z,604.41
2016-07-20T11:19:29.069Z,603.68
2016-07-20T11:20:29.062Z,603.09
2016-07-20T11:21:29.070Z,602.66
2016-07-20T11:22:29.096Z,601.14
2016-07-20T11:23:29.082Z,600.17
2016-07-20T11:24:29.107Z,600.2
2016-07-20T11:25:29.072Z,599.27
2016-07-20T11:26:29.071Z,598.07
2016-07-20T11:27:29.071Z,597.84
2016-07-20T11:28:29.104Z,596.73
2016-07-20T11:29:29.089Z,597.26
2016-07-20T11:30:29.077Z,596.91
2016-07-20T11:31:29.100Z,596.48
2016-07-20T11:32:29.086Z,595.9
2016-07-20T11:33:29.082Z,595.66
2016-07-20T11:34:29.121Z,594.91
2016-07-20T11:35:29.094Z,594.74
2016-07-20T11:36:29.103Z,594.68
2016-07-20T11:37:29.108Z,594.34
2016-07-20T11:38:29.088Z,594.48
2016-07-20T11:39:29.135Z,593.9
2016-07-20T11:40:29.108Z,594.43
2016-07-20T11:41:29.108Z,594.03
2016-07-20T11:42:29.086Z,593.84
2016-07-20T11:43:29.084Z,593.43
2016-07-20T11:44:29.083Z,592.81
2016-07-20T11:45:29.086Z,592.25
2016-07-20T11:46:29.094Z,592.94
2016-07-20T11:47:29.107Z,592.19
2016-07-20T11:48:29.110Z,591.05
2016-07-20T11:49:29.120Z,590.83
2016-07-20T11:50:29.108Z,591.15
2016-07-20T11:51:29.115Z,592.04
2016-07-20T11:52:29.122Z,592.71
2016-07-20T11:53:29.128Z,592.14
2016-07-20T11:54:29.121Z,591.58
2016-07-20T11:55:29.094Z,589.67
2016-07-20T11:56:29.182Z,589.75
2016-07-20T11:57:29.179Z,588.62
2016-07-20T11:58:29.843Z,587.94
2016-07-20T11:59:29.139Z,585.66
2016-07-20T12:00:29.233Z,584.29
2016-07-20T12:01:29.168Z,583.68
2016-07-20T12:02:29.174Z,583.25
2016-07-20T12:03:29.152Z,582.06
2016-07-20T12:04:29.138Z,581.85
2016-07-20T12:05:30.172Z,580.21
2016-07-20T12:06:29.146Z,579.7
2016-07-20T12:07:29.121Z,579.44
2016-07-20T12:08:29.137Z,578.44
2016-07-20T12:09:29.178Z,579.09
2016-07-20T12:10:29.138Z,578.64
2016-07-20T12:11:29.130Z,576.72
2016-07-20T12:12:29.137Z,577.51
2016-07-20T12:13:29.115Z,577.13
2016-07-20T12:14:29.119Z,577.48
2016-07-20T12:15:29.137Z,576.51
2016-07-20T12:16:29.116Z,576.12
2016-07-20T12:17:29.131Z,574.96
2016-07-20T12:18:29.132Z,573.94